sensor_id;sensor_type;location;lat;lon;timestamp;P1;durP1;ratioP1;P2;durP2;ratioP2
72406;SDS011;60396;47.550;18.828;2022-09-23T00:01:13;6.72;;;2.28;;
72406;SDS011;60396;47.550;18.828;2022-09-23T00:03:42;6.23;;;2.37;;
72406;SDS011;60396;47.550;18.828;2022-09-23T00:06:13;6.60;;;2.30;;
72406;SDS011;60396;47.550;18.828;2022-09-23T00:08:50;7.22;;;2.20;;
72406;SDS011;60396;47.550;18.828;2022-09-23T00:11:22;7.57;;;2.30;;
72406;SDS011;60396;47.550;18.828;2022-09-23T00:13:52;7.12;;;2.30;;
72406;SDS011;60396;47.550;18.828;2022-09-23T00:16:22;7.07;;;2.40;;
72406;SDS011;60396;47.550;18.828;2022-09-23T00:19:01;7.07;;;2.42;;
72406;SDS011;60396;47.550;18.828;2022-09-23T00:21:29;7.53;;;2.15;;
72406;SDS011;60396;47.550;18.828;2022-09-23T00:23:56;6.25;;;2.00;;
72406;SDS011;60396;47.550;18.828;2022-09-23T00:26:24;7.03;;;2.30;;
72406;SDS011;60396;47.550;18.828;2022-09-23T00:28:51;8.37;;;2.37;;
72406;SDS011;60396;47.550;18.828;2022-09-23T00:31:20;6.07;;;1.92;;
72406;SDS011;60396;47.550;18.828;2022-09-23T00:33:53;7.10;;;2.58;;
72406;SDS011;60396;47.550;18.828;2022-09-23T00:36:22;8.60;;;1.98;;
72406;SDS011;60396;47.550;18.828;2022-09-23T00:38:51;6.85;;;2.42;;
72406;SDS011;60396;47.550;18.828;2022-09-23T00:41:19;7.33;;;2.40;;
72406;SDS011;60396;47.550;18.828;2022-09-23T00:43:49;6.10;;;2.20;;
72406;SDS011;60396;47.550;18.828;2022-09-23T00:46:28;8.25;;;2.30;;
72406;SDS011;60396;47.550;18.828;2022-09-23T00:49:00;6.43;;;2.20;;
72406;SDS011;60396;47.550;18.828;2022-09-23T00:51:37;7.60;;;2.15;;
72406;SDS011;60396;47.550;18.828;2022-09-23T00:54:06;8.50;;;2.37;;
72406;SDS011;60396;47.550;18.828;2022-09-23T00:56:34;6.47;;;2.30;;
72406;SDS011;60396;47.550;18.828;2022-09-23T00:59:03;7.75;;;2.33;;
72406;SDS011;60396;47.550;18.828;2022-09-23T01:01:32;7.62;;;2.10;;
72406;SDS011;60396;47.550;18.828;2022-09-23T01:04:00;7.00;;;2.40;;
72406;SDS011;60396;47.550;18.828;2022-09-23T01:06:28;6.87;;;2.23;;
72406;SDS011;60396;47.550;18.828;2022-09-23T01:08:56;6.37;;;2.30;;
72406;SDS011;60396;47.550;18.828;2022-09-23T01:11:29;7.53;;;2.33;;
72406;SDS011;60396;47.550;18.828;2022-09-23T01:17:08;7.90;;;2.37;;
72406;SDS011;60396;47.550;18.828;2022-09-23T01:33:58;7.30;;;2.33;;
72406;SDS011;60396;47.550;18.828;2022-09-23T01:36:39;7.53;;;2.20;;
72406;SDS011;60396;47.550;18.828;2022-09-23T01:39:11;7.72;;;2.60;;
72406;SDS011;60396;47.550;18.828;2022-09-23T01:46:48;8.00;;;2.30;;
72406;SDS011;60396;47.550;18.828;2022-09-23T01:49:31;6.93;;;2.08;;
72406;SDS011;60396;47.550;18.828;2022-09-23T01:54:42;6.47;;;2.35;;
72406;SDS011;60396;47.550;18.828;2022-09-23T01:57:22;7.60;;;2.33;;
72406;SDS011;60396;47.550;18.828;2022-09-23T01:59:55;6.07;;;2.13;;
72406;SDS011;60396;47.550;18.828;2022-09-23T02:02:48;6.00;;;1.98;;
72406;SDS011;60396;47.550;18.828;2022-09-23T02:07:56;8.38;;;2.58;;
72406;SDS011;60396;47.550;18.828;2022-09-23T02:10:29;7.15;;;2.25;;
72406;SDS011;60396;47.550;18.828;2022-09-23T02:13:07;6.93;;;1.90;;
72406;SDS011;60396;47.550;18.828;2022-09-23T02:15:42;6.00;;;2.12;;
72406;SDS011;60396;47.550;18.828;2022-09-23T02:18:16;6.28;;;2.37;;
72406;SDS011;60396;47.550;18.828;2022-09-23T02:20:49;7.18;;;2.08;;
72406;SDS011;60396;47.550;18.828;2022-09-23T02:23:22;7.85;;;2.10;;
72406;SDS011;60396;47.550;18.828;2022-09-23T02:31:38;6.65;;;2.12;;
72406;SDS011;60396;47.550;18.828;2022-09-23T02:36:45;6.47;;;2.20;;
72406;SDS011;60396;47.550;18.828;2022-09-23T02:39:19;6.33;;;1.90;;
72406;SDS011;60396;47.550;18.828;2022-09-23T02:41:54;7.53;;;2.67;;
72406;SDS011;60396;47.550;18.828;2022-09-23T02:44:23;7.05;;;2.33;;
72406;SDS011;60396;47.550;18.828;2022-09-23T02:46:51;8.65;;;2.37;;
72406;SDS011;60396;47.550;18.828;2022-09-23T02:49:20;7.62;;;2.35;;
72406;SDS011;60396;47.550;18.828;2022-09-23T02:51:59;7.37;;;2.03;;
72406;SDS011;60396;47.550;18.828;2022-09-23T02:54:31;9.48;;;2.40;;
72406;SDS011;60396;47.550;18.828;2022-09-23T02:57:00;6.80;;;2.28;;
72406;SDS011;60396;47.550;18.828;2022-09-23T02:59:29;5.62;;;2.10;;
72406;SDS011;60396;47.550;18.828;2022-09-23T03:10:23;6.90;;;1.90;;
72406;SDS011;60396;47.550;18.828;2022-09-23T03:13:03;5.97;;;2.30;;
72406;SDS011;60396;47.550;18.828;2022-09-23T03:15:48;6.95;;;1.87;;
72406;SDS011;60396;47.550;18.828;2022-09-23T03:18:20;6.93;;;2.30;;
72406;SDS011;60396;47.550;18.828;2022-09-23T03:20:57;6.47;;;1.70;;
72406;SDS011;60396;47.550;18.828;2022-09-23T03:23:30;8.40;;;2.20;;
72406;SDS011;60396;47.550;18.828;2022-09-23T03:26:12;7.55;;;1.80;;
72406;SDS011;60396;47.550;18.828;2022-09-23T03:28:43;5.60;;;1.70;;
72406;SDS011;60396;47.550;18.828;2022-09-23T03:31:12;8.93;;;2.20;;
72406;SDS011;60396;47.550;18.828;2022-09-23T03:33:41;7.25;;;1.90;;
72406;SDS011;60396;47.550;18.828;2022-09-23T03:36:13;6.62;;;2.20;;
72406;SDS011;60396;47.550;18.828;2022-09-23T03:39:07;7.18;;;2.20;;
72406;SDS011;60396;47.550;18.828;2022-09-23T03:41:38;6.10;;;1.83;;
72406;SDS011;60396;47.550;18.828;2022-09-23T03:44:09;7.20;;;2.07;;
72406;SDS011;60396;47.550;18.828;2022-09-23T03:46:37;6.00;;;1.70;;
72406;SDS011;60396;47.550;18.828;2022-09-23T03:49:07;6.75;;;1.85;;
72406;SDS011;60396;47.550;18.828;2022-09-23T03:51:37;6.70;;;1.92;;
72406;SDS011;60396;47.550;18.828;2022-09-23T03:54:10;6.32;;;1.73;;
72406;SDS011;60396;47.550;18.828;2022-09-23T03:56:38;4.50;;;1.57;;
72406;SDS011;60396;47.550;18.828;2022-09-23T03:59:05;6.07;;;1.90;;
72406;SDS011;60396;47.550;18.828;2022-09-23T04:01:33;5.62;;;1.75;;
72406;SDS011;60396;47.550;18.828;2022-09-23T04:04:01;7.53;;;1.75;;
72406;SDS011;60396;47.550;18.828;2022-09-23T04:06:28;5.53;;;1.58;;
72406;SDS011;60396;47.550;18.828;2022-09-23T04:08:57;5.07;;;1.60;;
72406;SDS011;60396;47.550;18.828;2022-09-23T04:11:25;5.15;;;1.58;;
72406;SDS011;60396;47.550;18.828;2022-09-23T04:13:54;5.12;;;1.42;;
72406;SDS011;60396;47.550;18.828;2022-09-23T04:16:22;5.57;;;1.37;;
72406;SDS011;60396;47.550;18.828;2022-09-23T04:18:50;5.45;;;1.67;;
72406;SDS011;60396;47.550;18.828;2022-09-23T04:21:17;4.43;;;1.33;;
72406;SDS011;60396;47.550;18.828;2022-09-23T04:23:45;5.55;;;1.77;;
72406;SDS011;60396;47.550;18.828;2022-09-23T04:26:13;5.43;;;1.75;;
72406;SDS011;60396;47.550;18.828;2022-09-23T04:28:41;4.28;;;1.40;;
72406;SDS011;60396;47.550;18.828;2022-09-23T04:31:08;4.68;;;1.33;;
72406;SDS011;60396;47.550;18.828;2022-09-23T04:33:36;7.93;;;2.07;;
72406;SDS011;60396;47.550;18.828;2022-09-23T04:36:04;5.75;;;1.80;;
72406;SDS011;60396;47.550;18.828;2022-09-23T04:38:32;5.68;;;1.60;;
72406;SDS011;60396;47.550;18.828;2022-09-23T04:41:00;6.18;;;1.73;;
72406;SDS011;60396;47.550;18.828;2022-09-23T04:43:27;6.12;;;1.90;;
72406;SDS011;60396;47.550;18.828;2022-09-23T04:45:58;6.23;;;2.10;;
72406;SDS011;60396;47.550;18.828;2022-09-23T04:48:27;5.28;;;1.83;;
72406;SDS011;60396;47.550;18.828;2022-09-23T04:53:53;5.80;;;1.80;;
72406;SDS011;60396;47.550;18.828;2022-09-23T04:56:22;5.97;;;2.00;;
72406;SDS011;60396;47.550;18.828;2022-09-23T04:58:51;5.50;;;1.67;;
72406;SDS011;60396;47.550;18.828;2022-09-23T05:01:20;5.82;;;2.05;;
72406;SDS011;60396;47.550;18.828;2022-09-23T05:03:51;7.05;;;2.60;;
72406;SDS011;60396;47.550;18.828;2022-09-23T05:06:20;5.80;;;1.90;;
72406;SDS011;60396;47.550;18.828;2022-09-23T05:08:52;5.68;;;1.87;;
72406;SDS011;60396;47.550;18.828;2022-09-23T05:11:21;7.20;;;1.80;;
72406;SDS011;60396;47.550;18.828;2022-09-23T05:13:50;6.07;;;2.08;;
72406;SDS011;60396;47.550;18.828;2022-09-23T05:16:19;6.28;;;2.33;;
72406;SDS011;60396;47.550;18.828;2022-09-23T05:18:50;6.57;;;2.10;;
72406;SDS011;60396;47.550;18.828;2022-09-23T05:21:19;5.97;;;1.92;;
72406;SDS011;60396;47.550;18.828;2022-09-23T05:23:49;6.97;;;2.23;;
72406;SDS011;60396;47.550;18.828;2022-09-23T05:26:22;7.82;;;2.28;;
72406;SDS011;60396;47.550;18.828;2022-09-23T05:28:52;6.62;;;2.20;;
72406;SDS011;60396;47.550;18.828;2022-09-23T05:31:21;7.30;;;2.20;;
72406;SDS011;60396;47.550;18.828;2022-09-23T05:33:51;7.47;;;2.08;;
72406;SDS011;60396;47.550;18.828;2022-09-23T05:36:21;7.07;;;2.17;;
72406;SDS011;60396;47.550;18.828;2022-09-23T05:38:49;6.87;;;2.50;;
72406;SDS011;60396;47.550;18.828;2022-09-23T05:41:18;7.78;;;2.83;;
72406;SDS011;60396;47.550;18.828;2022-09-23T05:43:49;9.57;;;3.95;;
72406;SDS011;60396;47.550;18.828;2022-09-23T05:46:19;9.20;;;3.78;;
72406;SDS011;60396;47.550;18.828;2022-09-23T05:48:48;8.77;;;3.20;;
72406;SDS011;60396;47.550;18.828;2022-09-23T05:51:18;8.10;;;3.58;;
72406;SDS011;60396;47.550;18.828;2022-09-23T05:53:47;11.60;;;4.70;;
72406;SDS011;60396;47.550;18.828;2022-09-23T05:56:20;13.93;;;5.72;;
72406;SDS011;60396;47.550;18.828;2022-09-23T05:58:51;13.68;;;4.65;;
72406;SDS011;60396;47.550;18.828;2022-09-23T06:01:23;12.63;;;4.67;;
72406;SDS011;60396;47.550;18.828;2022-09-23T06:03:52;10.02;;;4.75;;
72406;SDS011;60396;47.550;18.828;2022-09-23T06:06:31;9.55;;;4.22;;
72406;SDS011;60396;47.550;18.828;2022-09-23T06:09:03;10.45;;;4.93;;
72406;SDS011;60396;47.550;18.828;2022-09-23T06:11:32;10.23;;;4.53;;
72406;SDS011;60396;47.550;18.828;2022-09-23T06:14:00;9.70;;;4.40;;
72406;SDS011;60396;47.550;18.828;2022-09-23T06:16:30;13.57;;;4.85;;
72406;SDS011;60396;47.550;18.828;2022-09-23T06:18:59;13.55;;;5.22;;
72406;SDS011;60396;47.550;18.828;2022-09-23T06:21:34;17.08;;;6.35;;
72406;SDS011;60396;47.550;18.828;2022-09-23T06:24:04;18.37;;;6.35;;
72406;SDS011;60396;47.550;18.828;2022-09-23T06:26:33;15.63;;;6.70;;
72406;SDS011;60396;47.550;18.828;2022-09-23T06:29:02;17.80;;;7.43;;
72406;SDS011;60396;47.550;18.828;2022-09-23T06:31:34;19.62;;;7.93;;
72406;SDS011;60396;47.550;18.828;2022-09-23T06:34:02;21.73;;;8.95;;
72406;SDS011;60396;47.550;18.828;2022-09-23T06:36:39;20.35;;;8.38;;
72406;SDS011;60396;47.550;18.828;2022-09-23T06:39:12;17.77;;;7.87;;
72406;SDS011;60396;47.550;18.828;2022-09-23T06:41:40;12.50;;;6.37;;
72406;SDS011;60396;47.550;18.828;2022-09-23T06:44:11;16.37;;;8.27;;
72406;SDS011;60396;47.550;18.828;2022-09-23T06:46:39;10.25;;;5.22;;
72406;SDS011;60396;47.550;18.828;2022-09-23T06:49:07;16.17;;;5.45;;
72406;SDS011;60396;47.550;18.828;2022-09-23T06:51:35;13.10;;;5.33;;
72406;SDS011;60396;47.550;18.828;2022-09-23T06:54:02;10.32;;;4.72;;
72406;SDS011;60396;47.550;18.828;2022-09-23T06:56:31;10.13;;;5.05;;
72406;SDS011;60396;47.550;18.828;2022-09-23T06:59:05;12.40;;;4.87;;
72406;SDS011;60396;47.550;18.828;2022-09-23T07:01:35;9.57;;;4.53;;
72406;SDS011;60396;47.550;18.828;2022-09-23T07:04:03;11.37;;;4.40;;
72406;SDS011;60396;47.550;18.828;2022-09-23T07:06:30;10.05;;;3.92;;
72406;SDS011;60396;47.550;18.828;2022-09-23T07:08:58;8.35;;;3.60;;
72406;SDS011;60396;47.550;18.828;2022-09-23T07:11:27;9.48;;;3.00;;
72406;SDS011;60396;47.550;18.828;2022-09-23T07:13:54;9.27;;;3.80;;
72406;SDS011;60396;47.550;18.828;2022-09-23T07:16:22;11.50;;;3.17;;
72406;SDS011;60396;47.550;18.828;2022-09-23T07:18:50;9.57;;;3.95;;
72406;SDS011;60396;47.550;18.828;2022-09-23T07:21:20;10.38;;;3.72;;
72406;SDS011;60396;47.550;18.828;2022-09-23T07:23:48;12.23;;;3.80;;
72406;SDS011;60396;47.550;18.828;2022-09-23T07:26:17;13.02;;;4.70;;
72406;SDS011;60396;47.550;18.828;2022-09-23T07:28:46;11.90;;;4.87;;
72406;SDS011;60396;47.550;18.828;2022-09-23T07:31:15;10.95;;;4.15;;
72406;SDS011;60396;47.550;18.828;2022-09-23T07:33:58;9.45;;;3.70;;
72406;SDS011;60396;47.550;18.828;2022-09-23T07:36:28;9.63;;;3.30;;
72406;SDS011;60396;47.550;18.828;2022-09-23T07:38:57;8.07;;;3.25;;
72406;SDS011;60396;47.550;18.828;2022-09-23T07:41:30;9.70;;;3.27;;
72406;SDS011;60396;47.550;18.828;2022-09-23T07:43:58;7.75;;;3.12;;
72406;SDS011;60396;47.550;18.828;2022-09-23T07:46:27;8.45;;;3.45;;
72406;SDS011;60396;47.550;18.828;2022-09-23T07:48:57;8.27;;;3.35;;
72406;SDS011;60396;47.550;18.828;2022-09-23T07:51:26;8.95;;;3.05;;
72406;SDS011;60396;47.550;18.828;2022-09-23T07:54:03;6.60;;;2.50;;
72406;SDS011;60396;47.550;18.828;2022-09-23T07:56:34;8.57;;;2.80;;
72406;SDS011;60396;47.550;18.828;2022-09-23T07:59:03;7.40;;;2.72;;
72406;SDS011;60396;47.550;18.828;2022-09-23T08:01:36;7.03;;;2.40;;
72406;SDS011;60396;47.550;18.828;2022-09-23T08:04:29;7.57;;;2.67;;
72406;SDS011;60396;47.550;18.828;2022-09-23T08:06:59;6.53;;;2.40;;
72406;SDS011;60396;47.550;18.828;2022-09-23T08:09:29;6.90;;;2.20;;
72406;SDS011;60396;47.550;18.828;2022-09-23T08:11:58;6.60;;;2.37;;
72406;SDS011;60396;47.550;18.828;2022-09-23T08:14:26;5.47;;;2.00;;
72406;SDS011;60396;47.550;18.828;2022-09-23T08:16:58;6.53;;;2.35;;
72406;SDS011;60396;47.550;18.828;2022-09-23T08:19:25;5.60;;;2.23;;
72406;SDS011;60396;47.550;18.828;2022-09-23T08:21:53;6.80;;;2.62;;
72406;SDS011;60396;47.550;18.828;2022-09-23T08:24:21;7.57;;;2.40;;
72406;SDS011;60396;47.550;18.828;2022-09-23T08:26:50;6.50;;;2.40;;
72406;SDS011;60396;47.550;18.828;2022-09-23T08:29:21;6.93;;;2.28;;
72406;SDS011;60396;47.550;18.828;2022-09-23T08:31:50;5.40;;;1.97;;
72406;SDS011;60396;47.550;18.828;2022-09-23T08:34:18;8.82;;;2.55;;
72406;SDS011;60396;47.550;18.828;2022-09-23T08:36:47;6.87;;;2.10;;
72406;SDS011;60396;47.550;18.828;2022-09-23T08:39:15;9.93;;;2.33;;
72406;SDS011;60396;47.550;18.828;2022-09-23T08:44:33;8.50;;;2.27;;
72406;SDS011;60396;47.550;18.828;2022-09-23T08:47:07;6.37;;;2.40;;
72406;SDS011;60396;47.550;18.828;2022-09-23T08:52:34;7.82;;;2.70;;
72406;SDS011;60396;47.550;18.828;2022-09-23T08:55:08;7.85;;;3.10;;
72406;SDS011;60396;47.550;18.828;2022-09-23T08:57:47;7.90;;;2.90;;
72406;SDS011;60396;47.550;18.828;2022-09-23T09:00:43;8.02;;;2.40;;
72406;SDS011;60396;47.550;18.828;2022-09-23T09:03:18;7.62;;;2.08;;
72406;SDS011;60396;47.550;18.828;2022-09-23T09:05:50;6.03;;;2.22;;
72406;SDS011;60396;47.550;18.828;2022-09-23T09:08:25;7.07;;;2.28;;
72406;SDS011;60396;47.550;18.828;2022-09-23T09:10:59;6.80;;;2.43;;
72406;SDS011;60396;47.550;18.828;2022-09-23T09:13:34;9.27;;;2.25;;
72406;SDS011;60396;47.550;18.828;2022-09-23T09:19:32;7.45;;;2.08;;
72406;SDS011;60396;47.550;18.828;2022-09-23T09:22:06;6.50;;;2.30;;
72406;SDS011;60396;47.550;18.828;2022-09-23T09:24:38;5.97;;;2.47;;
72406;SDS011;60396;47.550;18.828;2022-09-23T09:27:08;6.32;;;2.65;;
72406;SDS011;60396;47.550;18.828;2022-09-23T09:29:38;6.18;;;2.25;;
72406;SDS011;60396;47.550;18.828;2022-09-23T09:32:21;5.50;;;2.10;;
72406;SDS011;60396;47.550;18.828;2022-09-23T09:34:56;7.57;;;2.55;;
72406;SDS011;60396;47.550;18.828;2022-09-23T09:37:33;6.80;;;2.20;;
72406;SDS011;60396;47.550;18.828;2022-09-23T09:40:07;7.30;;;2.37;;
72406;SDS011;60396;47.550;18.828;2022-09-23T09:42:39;5.25;;;1.98;;
72406;SDS011;60396;47.550;18.828;2022-09-23T09:50:39;6.00;;;2.20;;
72406;SDS011;60396;47.550;18.828;2022-09-23T09:53:18;5.70;;;1.73;;
72406;SDS011;60396;47.550;18.828;2022-09-23T09:58:44;5.95;;;2.15;;
72406;SDS011;60396;47.550;18.828;2022-09-23T10:03:52;8.30;;;2.00;;
72406;SDS011;60396;47.550;18.828;2022-09-23T10:06:29;6.50;;;2.55;;
72406;SDS011;60396;47.550;18.828;2022-09-23T10:11:29;6.25;;;2.42;;
72406;SDS011;60396;47.550;18.828;2022-09-23T10:16:27;5.93;;;2.10;;
72406;SDS011;60396;47.550;18.828;2022-09-23T10:19:03;6.75;;;2.37;;
72406;SDS011;60396;47.550;18.828;2022-09-23T10:21:39;5.78;;;1.60;;
72406;SDS011;60396;47.550;18.828;2022-09-23T10:24:16;9.65;;;2.20;;
72406;SDS011;60396;47.550;18.828;2022-09-23T10:26:52;5.97;;;2.08;;
72406;SDS011;60396;47.550;18.828;2022-09-23T10:29:31;10.57;;;2.50;;
72406;SDS011;60396;47.550;18.828;2022-09-23T10:34:42;4.32;;;1.45;;
72406;SDS011;60396;47.550;18.828;2022-09-23T10:40:12;5.57;;;1.95;;
72406;SDS011;60396;47.550;18.828;2022-09-23T10:46:10;5.87;;;1.62;;
72406;SDS011;60396;47.550;18.828;2022-09-23T10:58:03;5.63;;;1.63;;
72406;SDS011;60396;47.550;18.828;2022-09-23T11:11:11;5.20;;;1.70;;
72406;SDS011;60396;47.550;18.828;2022-09-23T11:19:46;4.75;;;1.70;;
72406;SDS011;60396;47.550;18.828;2022-09-23T11:22:31;5.20;;;1.75;;
72406;SDS011;60396;47.550;18.828;2022-09-23T11:31:18;5.30;;;1.50;;
72406;SDS011;60396;47.550;18.828;2022-09-23T11:36:52;5.12;;;1.35;;
72406;SDS011;60396;47.550;18.828;2022-09-23T11:39:26;5.20;;;1.53;;
72406;SDS011;60396;47.550;18.828;2022-09-23T11:41:57;4.70;;;1.48;;
72406;SDS011;60396;47.550;18.828;2022-09-23T11:44:27;5.03;;;1.70;;
72406;SDS011;60396;47.550;18.828;2022-09-23T11:47:08;5.55;;;1.60;;
72406;SDS011;60396;47.550;18.828;2022-09-23T11:50:02;5.20;;;1.55;;
72406;SDS011;60396;47.550;18.828;2022-09-23T11:52:41;6.37;;;1.50;;
72406;SDS011;60396;47.550;18.828;2022-09-23T11:58:00;6.32;;;1.70;;
72406;SDS011;60396;47.550;18.828;2022-09-23T12:00:41;4.90;;;1.40;;
72406;SDS011;60396;47.550;18.828;2022-09-23T12:03:25;5.85;;;1.70;;
72406;SDS011;60396;47.550;18.828;2022-09-23T12:08:42;4.43;;;1.48;;
72406;SDS011;60396;47.550;18.828;2022-09-23T12:11:22;4.50;;;1.45;;
72406;SDS011;60396;47.550;18.828;2022-09-23T12:16:56;4.72;;;1.40;;
72406;SDS011;60396;47.550;18.828;2022-09-23T12:28:14;4.43;;;1.40;;
72406;SDS011;60396;47.550;18.828;2022-09-23T12:30:45;6.60;;;1.10;;
72406;SDS011;60396;47.550;18.828;2022-09-23T12:33:27;6.13;;;1.13;;
72406;SDS011;60396;47.550;18.828;2022-09-23T12:36:03;4.57;;;1.20;;
72406;SDS011;60396;47.550;18.828;2022-09-23T12:38:35;3.37;;;1.10;;
72406;SDS011;60396;47.550;18.828;2022-09-23T12:49:41;3.60;;;1.12;;
72406;SDS011;60396;47.550;18.828;2022-09-23T12:54:37;5.32;;;1.25;;
72406;SDS011;60396;47.550;18.828;2022-09-23T12:57:10;4.62;;;1.33;;
72406;SDS011;60396;47.550;18.828;2022-09-23T13:05:41;4.62;;;1.40;;
72406;SDS011;60396;47.550;18.828;2022-09-23T13:08:39;5.47;;;1.70;;
72406;SDS011;60396;47.550;18.828;2022-09-23T13:11:27;4.68;;;1.35;;
72406;SDS011;60396;47.550;18.828;2022-09-23T13:13:57;5.63;;;1.83;;
72406;SDS011;60396;47.550;18.828;2022-09-23T13:16:29;4.47;;;1.40;;
72406;SDS011;60396;47.550;18.828;2022-09-23T13:24:33;5.50;;;1.50;;
72406;SDS011;60396;47.550;18.828;2022-09-23T13:27:16;3.47;;;1.07;;
72406;SDS011;60396;47.550;18.828;2022-09-23T13:32:43;5.43;;;1.45;;
72406;SDS011;60396;47.550;18.828;2022-09-23T13:35:30;4.55;;;1.50;;
72406;SDS011;60396;47.550;18.828;2022-09-23T13:38:07;4.80;;;1.70;;
72406;SDS011;60396;47.550;18.828;2022-09-23T13:40:45;5.83;;;1.63;;
72406;SDS011;60396;47.550;18.828;2022-09-23T13:43:23;5.55;;;1.80;;
72406;SDS011;60396;47.550;18.828;2022-09-23T13:45:54;8.07;;;1.73;;
72406;SDS011;60396;47.550;18.828;2022-09-23T13:48:22;9.38;;;2.80;;
72406;SDS011;60396;47.550;18.828;2022-09-23T13:50:51;12.43;;;4.15;;
72406;SDS011;60396;47.550;18.828;2022-09-23T13:53:26;8.57;;;1.73;;
72406;SDS011;60396;47.550;18.828;2022-09-23T13:56:03;7.12;;;1.80;;
72406;SDS011;60396;47.550;18.828;2022-09-23T13:58:32;5.70;;;2.05;;
72406;SDS011;60396;47.550;18.828;2022-09-23T14:01:00;5.50;;;1.95;;
72406;SDS011;60396;47.550;18.828;2022-09-23T14:03:33;8.77;;;1.90;;
72406;SDS011;60396;47.550;18.828;2022-09-23T14:06:04;5.33;;;1.63;;
72406;SDS011;60396;47.550;18.828;2022-09-23T14:08:37;6.25;;;1.70;;
72406;SDS011;60396;47.550;18.828;2022-09-23T14:11:05;8.02;;;1.95;;
72406;SDS011;60396;47.550;18.828;2022-09-23T14:13:36;7.12;;;2.15;;
72406;SDS011;60396;47.550;18.828;2022-09-23T14:16:08;6.85;;;2.10;;
72406;SDS011;60396;47.550;18.828;2022-09-23T14:18:38;7.67;;;1.97;;
72406;SDS011;60396;47.550;18.828;2022-09-23T14:23:55;15.13;;;2.45;;
72406;SDS011;60396;47.550;18.828;2022-09-23T14:26:22;7.78;;;2.00;;
72406;SDS011;60396;47.550;18.828;2022-09-23T14:28:50;7.25;;;2.15;;
72406;SDS011;60396;47.550;18.828;2022-09-23T14:31:18;6.37;;;2.30;;
72406;SDS011;60396;47.550;18.828;2022-09-23T14:33:46;6.15;;;1.83;;
72406;SDS011;60396;47.550;18.828;2022-09-23T14:36:15;6.60;;;2.47;;
72406;SDS011;60396;47.550;18.828;2022-09-23T14:39:06;13.70;;;2.70;;
72406;SDS011;60396;47.550;18.828;2022-09-23T14:41:39;6.47;;;2.22;;
72406;SDS011;60396;47.550;18.828;2022-09-23T14:44:21;8.00;;;2.40;;
72406;SDS011;60396;47.550;18.828;2022-09-23T14:46:53;6.40;;;2.55;;
72406;SDS011;60396;47.550;18.828;2022-09-23T14:49:24;7.10;;;2.45;;
72406;SDS011;60396;47.550;18.828;2022-09-23T15:02:36;7.15;;;2.50;;
72406;SDS011;60396;47.550;18.828;2022-09-23T15:05:06;8.23;;;2.30;;
72406;SDS011;60396;47.550;18.828;2022-09-23T15:07:35;7.03;;;2.30;;
72406;SDS011;60396;47.550;18.828;2022-09-23T15:10:06;7.73;;;2.60;;
72406;SDS011;60396;47.550;18.828;2022-09-23T15:12:39;7.72;;;2.47;;
72406;SDS011;60396;47.550;18.828;2022-09-23T15:15:09;8.70;;;2.58;;
72406;SDS011;60396;47.550;18.828;2022-09-23T15:17:38;7.45;;;2.67;;
72406;SDS011;60396;47.550;18.828;2022-09-23T15:20:12;6.75;;;2.40;;
72406;SDS011;60396;47.550;18.828;2022-09-23T15:22:49;8.53;;;2.30;;
72406;SDS011;60396;47.550;18.828;2022-09-23T15:25:33;6.03;;;2.10;;
72406;SDS011;60396;47.550;18.828;2022-09-23T15:30:33;7.85;;;1.90;;
72406;SDS011;60396;47.550;18.828;2022-09-23T15:33:02;5.75;;;1.90;;
72406;SDS011;60396;47.550;18.828;2022-09-23T15:35:30;5.87;;;1.80;;
72406;SDS011;60396;47.550;18.828;2022-09-23T15:38:01;6.47;;;2.17;;
72406;SDS011;60396;47.550;18.828;2022-09-23T15:40:30;6.10;;;1.98;;
72406;SDS011;60396;47.550;18.828;2022-09-23T15:43:01;5.93;;;2.20;;
72406;SDS011;60396;47.550;18.828;2022-09-23T15:45:37;5.90;;;2.00;;
72406;SDS011;60396;47.550;18.828;2022-09-23T15:48:12;6.50;;;2.00;;
72406;SDS011;60396;47.550;18.828;2022-09-23T15:50:41;5.68;;;2.10;;
72406;SDS011;60396;47.550;18.828;2022-09-23T15:53:10;6.22;;;1.77;;
72406;SDS011;60396;47.550;18.828;2022-09-23T15:55:43;6.25;;;1.85;;
72406;SDS011;60396;47.550;18.828;2022-09-23T15:58:11;5.15;;;1.98;;
72406;SDS011;60396;47.550;18.828;2022-09-23T16:00:39;5.33;;;1.67;;
72406;SDS011;60396;47.550;18.828;2022-09-23T16:03:07;5.55;;;2.03;;
72406;SDS011;60396;47.550;18.828;2022-09-23T16:05:38;5.03;;;1.70;;
72406;SDS011;60396;47.550;18.828;2022-09-23T16:08:07;5.57;;;1.85;;
72406;SDS011;60396;47.550;18.828;2022-09-23T16:10:36;6.45;;;2.20;;
72406;SDS011;60396;47.550;18.828;2022-09-23T16:13:05;9.20;;;2.53;;
72406;SDS011;60396;47.550;18.828;2022-09-23T16:15:36;8.13;;;2.50;;
72406;SDS011;60396;47.550;18.828;2022-09-23T16:18:05;8.40;;;2.05;;
72406;SDS011;60396;47.550;18.828;2022-09-23T16:20:35;6.80;;;2.00;;
72406;SDS011;60396;47.550;18.828;2022-09-23T16:23:05;5.78;;;1.92;;
72406;SDS011;60396;47.550;18.828;2022-09-23T16:25:34;6.73;;;2.43;;
72406;SDS011;60396;47.550;18.828;2022-09-23T16:28:05;9.32;;;2.40;;
72406;SDS011;60396;47.550;18.828;2022-09-23T16:30:33;10.15;;;2.72;;
72406;SDS011;60396;47.550;18.828;2022-09-23T16:33:00;8.45;;;2.90;;
72406;SDS011;60396;47.550;18.828;2022-09-23T16:35:29;8.40;;;2.20;;
72406;SDS011;60396;47.550;18.828;2022-09-23T16:38:00;6.13;;;1.83;;
72406;SDS011;60396;47.550;18.828;2022-09-23T16:40:27;5.82;;;2.20;;
72406;SDS011;60396;47.550;18.828;2022-09-23T16:42:56;6.93;;;1.85;;
72406;SDS011;60396;47.550;18.828;2022-09-23T16:45:24;6.70;;;1.58;;
72406;SDS011;60396;47.550;18.828;2022-09-23T16:47:52;7.95;;;1.50;;
72406;SDS011;60396;47.550;18.828;2022-09-23T16:50:21;6.03;;;1.30;;
72406;SDS011;60396;47.550;18.828;2022-09-23T16:52:52;6.60;;;1.40;;
72406;SDS011;60396;47.550;18.828;2022-09-23T16:55:23;4.28;;;1.40;;
72406;SDS011;60396;47.550;18.828;2022-09-23T16:57:52;4.75;;;1.58;;
72406;SDS011;60396;47.550;18.828;2022-09-23T17:00:22;4.93;;;1.50;;
72406;SDS011;60396;47.550;18.828;2022-09-23T17:03:09;6.13;;;1.30;;
72406;SDS011;60396;47.550;18.828;2022-09-23T17:05:57;4.53;;;1.40;;
72406;SDS011;60396;47.550;18.828;2022-09-23T17:08:28;5.30;;;1.52;;
72406;SDS011;60396;47.550;18.828;2022-09-23T17:10:56;5.43;;;1.50;;
72406;SDS011;60396;47.550;18.828;2022-09-23T17:13:26;4.78;;;1.52;;
72406;SDS011;60396;47.550;18.828;2022-09-23T17:15:54;5.63;;;1.90;;
72406;SDS011;60396;47.550;18.828;2022-09-23T17:18:21;4.80;;;1.30;;
72406;SDS011;60396;47.550;18.828;2022-09-23T17:20:59;7.00;;;1.40;;
72406;SDS011;60396;47.550;18.828;2022-09-23T17:23:34;3.83;;;1.25;;
72406;SDS011;60396;47.550;18.828;2022-09-23T17:26:02;5.28;;;1.52;;
72406;SDS011;60396;47.550;18.828;2022-09-23T17:28:31;6.27;;;1.20;;
72406;SDS011;60396;47.550;18.828;2022-09-23T17:31:00;3.95;;;1.12;;
72406;SDS011;60396;47.550;18.828;2022-09-23T17:33:29;5.37;;;1.27;;
72406;SDS011;60396;47.550;18.828;2022-09-23T17:35:58;4.72;;;1.17;;
72406;SDS011;60396;47.550;18.828;2022-09-23T17:38:28;3.25;;;1.12;;
72406;SDS011;60396;47.550;18.828;2022-09-23T17:40:56;4.87;;;1.33;;
72406;SDS011;60396;47.550;18.828;2022-09-23T17:43:25;6.65;;;1.10;;
72406;SDS011;60396;47.550;18.828;2022-09-23T17:45:55;3.90;;;1.10;;
72406;SDS011;60396;47.550;18.828;2022-09-23T17:48:24;3.70;;;0.98;;
72406;SDS011;60396;47.550;18.828;2022-09-23T17:51:02;5.25;;;1.00;;
72406;SDS011;60396;47.550;18.828;2022-09-23T17:53:33;3.70;;;1.10;;
72406;SDS011;60396;47.550;18.828;2022-09-23T17:56:03;5.10;;;1.10;;